Terminal Aerodrome Forecast
Issued by NWS

Home | Current Version | Previous Version | Graphics & Text | Print | Product List | Glossary On
Versions: 1 2 3 4 5 6 7 8 9 10 11 12 13 14 15 16 17 18
000
FTUS43 KBIS 241700
TAFMOT
TAF
KMOT 241720Z 2418/2518 03012KT 6SM BR VCSH SCT005 SCT020 OVC035
      TEMPO 2418/2421 3SM -RA BR BKN005 OVC015
     FM242100 32015KT 5SM -RA BR SCT006 BKN015 OVC025
      TEMPO 2421/2424 1SM -RASN BR BKN006 OVC025
     FM250000 31022G30KT 3/4SM -SN BR BKN006 OVC012
     FM250600 31022G30KT 4SM BR OVC005
     FM251400 30018G24KT P6SM OVC015=

USA.gov is the U.S. government's official web portal to all federal, state and local government web resources and services.